Lake George, Wisconsin
Current Conditions -  °F | °C
As of 11:53 AM on Saturday 25 Oct 2014 (Local Time) from KRHI Reporting Station
Clear Clear  
Wind Chill: 55°   Ceiling: Unl
Heat Index: 55°   Visibility: 10mi
Dew Point: 29°   Wind: 12mph
Humidity: 37%   Direction: 310°NW
Pressure: 29.87"   Gusts: 26mph
Location:  45.6521°N, 89.3386°W
Report Text: KRHI 251653Z AUTO 31010G23KT 10SM CLR 13/M02 A2987 RMK AO2 PK WND 28029/1620 SLP118 T01281017
Loading
Personal Weather Stations






























Interactive Weather Map
Tropical Storm Tracking
New forecast layout! Learn more

10-Day Weather Forecast

Advertisements
Track Severe Weather on mobile